Capitol Logistics 344




TIST
Cyril E King Airport
Charlotte Amalie, VI
KMIA
Miami International Airport
Miami, US

Activity Log

Date Flight Route Aircraft Duration
No Flights Yet

Route Details

Aircraft Information
Primary: Boeing 737-800BCF
Backup: Boeing 757-200SF
Route Data
Distance: 963nm
Duration: 2h 49m
Recm'd Route: PALCO7 PALCO RTE6 SJU ACONY Y308 FOWEE FLIPR7
Origin Wx: TIST 141953Z 33014G21KT 10SM CLR 29/21 A2991 RMK AO2 SLP129 T02940211
Dest. Wx: KMIA 141953Z 11013KT 10SM FEW040 27/17 A3005 RMK AO2 SLP177 T02720172 $
Notes: